Potsdam, NY (13676)

12:17 PM EST on February 08, 2016 (GMT -0500)
NonFedAWOS | | Change Station
CLOSE
Current Station
Personal Weather Station
Location: Potsdam, NY
Elevation: 473 ft
Nearby Weather Stations

Elev 473 ft 44.68 °N, 74.95 °W | Updated 34 minutes ago

Partly Cloudy
Partly Cloudy
23 °F
Feels Like 11 °F
N
14
Wind Variable Wind from NE
Gusts 21.0 mph

Today
High -- | Low -- °F
--% Chance of Precip.
Yesterday
High -- | Low -- °F
Precip. -- in
Pressure 29.95 in
Visibility 10.0 miles
Clouds Clear
Windchill 11 °F
Dew Point 10 °F
Humidity 58%
Rainfall in
Snow Depth Not available.
7:10 AM 5:17 PM
New Moon, 0% visible
METAR KMSS 081653Z AUTO 07015KT 10SM CLR M06/M14 A2992 RMK AO2 SLP140 T10611139
Pressure 29.95 in
Visibility 10.0 miles
Clouds Clear
Windchill 11 °F
Dew Point 10 °F
Humidity 58%
Rainfall in
Snow Depth Not available.
7:10 AM 5:17 PM
New Moon, 0% visible
METAR KMSS 081653Z AUTO 07015KT 10SM CLR M06/M14 A2992 RMK AO2 SLP140 T10611139

10-Day Weather Forecast

Almanac

Astronomy

Feb. 08, 2016 Rise Set
Actual Time
Civil Twilight
Nautical Twilight
Astronomical Twilight
Moon
Length of Visible Light
Length of Day
Tomorrow will be .
, % of the Moon is Illuminated

Today's Extremes

State Highs State Lows

Community

WunderPhotos

Upload Photos

1,891,471 photos uploaded!

WunderBlog® & News

Nearby

Air Quality

  Air Quality AQ Index Pollutant
Not available.

Snow Depth

Station Depth Elevation

Earthquake Activity

City Distance Mag. Time & Date
Minimum magnitude displayed is 2.5.

Coastal Water Temperatures

Place Temperature

Stations

Nearby Weather Stations

Station Location Temp. Windchill Dew Point Humidity Wind Precip. Elev Updated Type
                   

Watches & Warnings

There are currently no watches in effect.